Saint Michaels, AZ (86511)

12:51 PM MDT on September 04, 2015 (GMT -0600)
Window Rock | | Change Station
CLOSE
Current Station
Airport
Location: Window Rock,
Elevation: 6742 ft
Nearby Weather Stations

Elev 6742 ft 35.66 °N, 109.06 °W | Updated 58 minutes ago

Overcast
Overcast
69 °F
Feels Like 69 °F
N
6
Wind Variable Wind from South

Today
High -- | Low -- °F
--% Chance of Precip.
Yesterday
High -- | Low -- °F
Precip. -- in
6:50 AM 7:39 PM
Waning Gibbous, 57% visible
Pressure 29.86 in
Visibility 10.0 miles
Clouds Few 3700 ft
Mostly Cloudy 9000 ft
Overcast 10000 ft
Dew Point 52 °F
Humidity 54%
Rainfall 0.04 in
Snow Depth Not available.
UV 3 out of 12
Pollen 6.70 out of 12
Air Quality Not available.
Flu Activity Not available.
METAR KRQE 041753Z AUTO 19005KT 10SM FEW037 BKN090 OVC100 21/11 A3019 RMK AO2 SLP110 60002 T02060111 10211 20133 58002 TSNO
Pressure 29.86 in
Visibility 10.0 miles
Clouds Few 3700 ft
Mostly Cloudy 9000 ft
Overcast 10000 ft
Dew Point 52 °F
Humidity 54%
Rainfall 0.04 in
Snow Depth Not available.
UV 3 out of 12
Pollen 6.70 out of 12
Air Quality Not available.
Flu Activity Not available.
METAR KRQE 041753Z AUTO 19005KT 10SM FEW037 BKN090 OVC100 21/11 A3019 RMK AO2 SLP110 60002 T02060111 10211 20133 58002 TSNO

10-Day Weather Forecast

×

Almanac

Astronomy

Sep. 04, 2015 Rise Set
Actual Time
Civil Twilight
Nautical Twilight
Astronomical Twilight
Moon
Length of Visible Light
Length of Day
Tomorrow will be .
, % of the Moon is Illuminated

Today's Extremes

State Highs State Lows

Community

WunderPhotos

Upload Photos

1,852,262 photos uploaded!

WunderBlogs® & News

Nearby

Air Quality

  Air Quality AQ Index Pollutant
Not available.

Snow Depth

Station Depth Elevation

Earthquake Activity

City Distance Mag. Time & Date
Minimum magnitude displayed is 2.5.

Coastal Water Temperatures

Place Temperature

Stations

Nearby Weather Stations

Station Location Temp. Windchill Dew Point Humidity Wind Precip. Elev Updated Type